createdAt,value
2022-07-25T00:11:54.489Z,961.16
2022-07-25T00:26:56.714Z,961.11
2022-07-25T00:41:59.689Z,961.08
2022-07-25T00:57:02.172Z,960.9
2022-07-25T01:12:04.641Z,960.85
2022-07-25T01:27:07.799Z,960.76
2022-07-25T01:42:19.536Z,960.82
2022-07-25T01:57:21.988Z,960.74
2022-07-25T02:12:27.599Z,960.8
2022-07-25T02:27:29.914Z,960.84
2022-07-25T02:42:32.341Z,960.91
2022-07-25T02:57:34.642Z,961.04
2022-07-25T03:12:37.105Z,961.22
2022-07-25T03:27:39.471Z,961.35
2022-07-25T03:42:41.996Z,961.62
2022-07-25T03:57:44.271Z,961.81
2022-07-25T04:12:46.555Z,962.2
2022-07-25T04:27:48.844Z,962.36
2022-07-25T04:42:51.108Z,962.45
2022-07-25T04:57:53.429Z,962.55
2022-07-25T05:12:55.730Z,962.73
2022-07-25T05:27:58.191Z,962.63
2022-07-25T05:43:03.282Z,962.66
2022-07-25T05:58:06.172Z,962.81
2022-07-25T06:13:08.451Z,962.8
2022-07-25T06:28:12.666Z,962.85
2022-07-25T06:43:20.539Z,962.82
2022-07-25T06:58:24.050Z,962.91
2022-07-25T07:13:28.497Z,962.89
2022-07-25T07:28:30.878Z,962.96
2022-07-25T07:43:33.166Z,963.04
2022-07-25T07:58:35.624Z,963.06
2022-07-25T08:13:37.923Z,963.08
2022-07-25T08:28:40.240Z,963.15
2022-07-25T08:43:42.697Z,963.19
2022-07-25T08:58:44.995Z,963.23
2022-07-25T09:13:47.292Z,963.29
2022-07-25T09:28:49.786Z,963.36
2022-07-25T09:43:52.142Z,963.45
2022-07-25T09:58:54.436Z,963.4
2022-07-25T10:13:56.747Z,963.54
2022-07-25T10:28:59.045Z,963.65
2022-07-25T10:44:01.420Z,963.67
2022-07-25T10:59:03.902Z,963.65
2022-07-25T11:14:06.415Z,963.65
2022-07-25T11:29:09.344Z,963.67
2022-07-25T11:44:11.944Z,963.67
2022-07-25T11:59:14.293Z,963.77
2022-07-25T12:14:16.599Z,963.8
2022-07-25T12:29:18.877Z,963.67
2022-07-25T12:44:21.312Z,963.77
2022-07-25T12:59:23.601Z,963.72
2022-07-25T13:14:26.468Z,963.8
2022-07-25T13:29:28.871Z,963.81
2022-07-25T13:44:31.844Z,963.74
2022-07-25T13:59:34.141Z,963.78
2022-07-25T14:14:36.623Z,963.8
2022-07-25T14:29:38.941Z,963.83
2022-07-25T14:44:41.329Z,963.84
2022-07-25T14:59:43.649Z,963.86
2022-07-25T15:14:46.639Z,963.75
2022-07-25T15:29:48.961Z,963.57
2022-07-25T15:45:03.856Z,963.47
2022-07-25T16:00:17.843Z,963.33
2022-07-25T16:15:20.137Z,963.19
2022-07-25T16:30:22.547Z,963.02
2022-07-25T16:45:24.824Z,962.82
2022-07-25T17:00:27.127Z,962.71
2022-07-25T17:15:29.456Z,962.56
2022-07-25T17:30:31.854Z,962.42
2022-07-25T17:45:34.184Z,962.16
2022-07-25T18:00:36.462Z,962.03
2022-07-25T18:15:38.883Z,961.83
2022-07-25T18:30:41.264Z,961.65
2022-07-25T18:45:43.751Z,961.44
2022-07-25T19:00:47.138Z,961.15
2022-07-25T19:15:49.569Z,960.94
2022-07-25T19:30:51.962Z,960.75
2022-07-25T19:45:54.450Z,960.46
2022-07-25T20:00:56.865Z,960.12
2022-07-25T20:15:59.180Z,959.86
2022-07-25T20:31:01.617Z,959.72
2022-07-25T20:46:08.848Z,959.58
2022-07-25T21:01:11.761Z,959.44
2022-07-25T21:16:14.061Z,959.36
2022-07-25T21:31:16.412Z,959.27
2022-07-25T21:46:18.826Z,959.06
2022-07-25T22:01:21.659Z,958.78
2022-07-25T22:16:24.120Z,958.68
2022-07-25T22:31:26.491Z,958.55
2022-07-25T22:46:29.032Z,958.44
2022-07-25T23:01:31.483Z,958.26
2022-07-25T23:16:33.864Z,958.09
2022-07-25T23:31:36.269Z,958.11
2022-07-25T23:46:38.691Z,958.04
